Time;durP1;ratioP1;P1;durP2;ratioP2;P2;SDS_P1;SDS_P2;PMS_P1;PMS_P2;Temp;Humidity;BMP_temperature;BMP_pressure;BME280_temperature;BME280_humidity;BME280_pressure;Samples;Min_cycle;Max_cycle;Signal;HPM_P1;HPM_P2
2023/07/08 00:00:00;;;;;;;3.33;2.30;;;22.50;60.10;;;;;;2089484;28;20528;-70
2023/07/08 00:01:01;;;;;;;4.43;2.58;;;22.50;60.20;;;;;;2093229;28;20464;-70
2023/07/08 00:02:01;;;;;;;2.85;1.83;;;22.40;60.10;;;;;;2091847;28;20095;-70
2023/07/08 00:03:01;;;;;;;4.75;2.55;;;22.40;60.10;;;;;;2093348;28;20063;-70
2023/07/08 00:04:03;;;;;;;3.38;2.15;;;22.40;60.20;;;;;;2092020;28;20029;-70
2023/07/08 00:05:04;;;;;;;3.03;2.08;;;22.40;60.40;;;;;;2089246;28;20033;-70
2023/07/08 00:06:18;;;;;;;5.57;2.03;;;22.40;60.30;;;;;;2090630;28;20052;-70
2023/07/08 00:07:20;;;;;;;2.85;2.08;;;22.40;60.50;;;;;;2092266;28;20021;-70
2023/07/08 00:08:21;;;;;;;5.07;2.25;;;22.40;60.40;;;;;;2092952;28;20024;-69
2023/07/08 00:09:21;;;;;;;3.42;2.28;;;22.40;60.30;;;;;;2092146;28;20540;-69
2023/07/08 00:10:25;;;;;;;3.63;2.08;;;22.40;60.60;;;;;;2090888;28;20025;-69
2023/07/08 00:11:28;;;;;;;2.28;1.83;;;22.40;60.70;;;;;;2090794;28;20033;-69
2023/07/08 00:12:29;;;;;;;5.38;2.25;;;22.40;60.80;;;;;;2091544;28;20064;-69
2023/07/08 00:13:29;;;;;;;5.80;2.28;;;22.40;60.60;;;;;;2090336;28;20029;-69
2023/07/08 00:14:30;;;;;;;2.92;1.92;;;22.40;60.80;;;;;;2091797;28;20055;-70
2023/07/08 00:15:32;;;;;;;2.45;2.25;;;22.30;60.70;;;;;;2094035;28;20020;-70
2023/07/08 00:16:33;;;;;;;2.47;1.92;;;22.30;60.70;;;;;;2092329;28;20381;-70
2023/07/08 00:17:33;;;;;;;3.08;2.20;;;22.30;60.90;;;;;;2093002;28;20032;-70
2023/07/08 00:18:34;;;;;;;3.17;1.90;;;22.30;60.70;;;;;;2092045;28;20029;-70
2023/07/08 00:19:34;;;;;;;3.33;2.50;;;22.30;60.70;;;;;;2091300;28;20025;-70
2023/07/08 00:20:41;;;;;;;2.50;1.90;;;22.30;60.70;;;;;;2092070;28;20025;-70
2023/07/08 00:21:42;;;;;;;3.88;2.33;;;22.30;60.90;;;;;;2091105;28;20373;-70
2023/07/08 00:22:42;;;;;;;4.88;2.47;;;22.30;60.70;;;;;;2093544;28;20017;-70
2023/07/08 00:23:45;;;;;;;2.83;2.10;;;22.30;60.90;;;;;;2092108;28;20017;-69
2023/07/08 00:24:45;;;;;;;3.00;1.85;;;22.40;61.60;;;;;;2092296;28;20105;-69
2023/07/08 00:25:46;;;;;;;3.23;1.90;;;22.30;60.90;;;;;;2093828;28;20086;-69
2023/07/08 00:26:46;;;;;;;2.50;2.00;;;22.30;60.70;;;;;;2093316;28;20060;-69
2023/07/08 00:27:48;;;;;;;4.25;2.10;;;22.30;60.90;;;;;;2092264;28;20028;-69
2023/07/08 00:28:49;;;;;;;5.07;1.80;;;22.30;61.30;;;;;;2091771;28;20037;-69
2023/07/08 00:29:50;;;;;;;4.22;2.38;;;22.40;61.40;;;;;;2090952;28;20488;-69
2023/07/08 00:30:50;;;;;;;4.80;2.42;;;22.40;61.00;;;;;;2090290;28;20485;-69
2023/07/08 00:31:51;;;;;;;4.60;1.98;;;22.40;61.20;;;;;;2094865;28;20025;-69
2023/07/08 00:32:54;;;;;;;3.72;1.95;;;22.40;61.20;;;;;;2092169;28;20036;-70
2023/07/08 00:33:56;;;;;;;3.15;2.20;;;22.40;61.10;;;;;;2093478;28;20043;-69
2023/07/08 00:34:56;;;;;;;3.95;1.80;;;22.40;61.30;;;;;;2090237;28;20941;-69
2023/07/08 00:35:57;;;;;;;2.20;1.85;;;22.40;60.80;;;;;;2089571;28;20510;-69
2023/07/08 00:36:57;;;;;;;6.47;2.10;;;22.30;61.00;;;;;;2092075;28;20074;-69
2023/07/08 00:38:01;;;;;;;4.57;2.40;;;22.40;61.10;;;;;;2091207;28;20060;-69
2023/07/08 00:39:02;;;;;;;4.30;2.22;;;22.40;61.00;;;;;;2092308;28;20090;-70
2023/07/08 00:40:17;;;;;;;2.85;2.10;;;22.40;61.00;;;;;;2091683;28;20033;-70
2023/07/08 00:41:30;;;;;;;5.63;1.95;;;22.40;61.30;;;;;;2090053;28;20021;-70
2023/07/08 00:42:31;;;;;;;2.63;1.67;;;22.40;61.60;;;;;;2089975;28;20033;-70
2023/07/08 00:43:44;;;;;;;2.03;1.50;;;22.30;61.20;;;;;;2091227;28;20039;-70
2023/07/08 00:44:44;;;;;;;3.67;2.30;;;22.30;61.20;;;;;;2092323;28;20035;-70
2023/07/08 00:45:51;;;;;;;3.00;2.10;;;22.30;61.20;;;;;;2091628;28;20025;-70
2023/07/08 00:47:03;;;;;;;3.00;2.67;;;22.30;61.20;;;;;;2092056;28;20036;-70
2023/07/08 00:48:15;;;;;;;2.40;2.00;;;22.30;61.20;;;;;;2092577;28;20806;-70
2023/07/08 00:49:49;;;;;;;2.25;1.60;;;22.30;61.70;;;;;;2094794;28;20407;-70
2023/07/08 00:50:51;;;;;;;4.50;2.05;;;22.30;61.50;;;;;;2083855;28;20095;-70
2023/07/08 00:51:52;;;;;;;3.83;1.88;;;22.30;61.30;;;;;;2091539;28;20482;-70
2023/07/08 00:53:31;;;;;;;1.85;1.75;;;22.30;61.40;;;;;;2093682;28;20052;-70
2023/07/08 00:54:32;;;;;;;2.85;2.03;;;22.30;61.60;;;;;;2091992;28;20025;-70
2023/07/08 00:55:32;;;;;;;1.98;1.77;;;22.30;61.40;;;;;;2090824;28;20612;-70
2023/07/08 00:56:41;;;;;;;3.15;1.80;;;22.30;61.50;;;;;;2093093;28;20532;-70
2023/07/08 00:57:45;;;;;;;3.83;2.17;;;22.30;61.70;;;;;;2092767;28;20016;-70
2023/07/08 00:58:54;;;;;;;3.15;2.50;;;22.30;61.60;;;;;;2091734;28;20759;-70
2023/07/08 01:00:16;;;;;;;3.58;1.70;;;22.20;61.70;;;;;;2089633;28;20028;-70
2023/07/08 01:01:17;;;;;;;2.25;1.80;;;22.30;61.90;;;;;;2090554;28;20078;-70
2023/07/08 01:02:21;;;;;;;2.10;1.80;;;22.30;61.50;;;;;;2091810;28;20107;-70
2023/07/08 01:03:21;;;;;;;2.97;2.13;;;22.20;61.80;;;;;;2096720;28;20575;-70
2023/07/08 01:04:31;;;;;;;3.08;2.22;;;22.30;61.80;;;;;;2097724;28;20436;-70
2023/07/08 01:05:34;;;;;;;3.13;1.88;;;22.30;62.00;;;;;;2092258;28;20067;-70
2023/07/08 01:06:39;;;;;;;4.38;2.30;;;22.20;61.80;;;;;;2091330;28;20025;-70
2023/07/08 01:07:44;;;;;;;2.05;1.80;;;22.30;61.90;;;;;;2091879;28;20021;-69
2023/07/08 01:08:47;;;;;;;2.75;2.00;;;22.20;62.00;;;;;;2091911;28;20070;-70
2023/07/08 01:09:53;;;;;;;2.53;1.92;;;22.30;62.00;;;;;;2091828;28;20025;-70
2023/07/08 01:11:03;;;;;;;2.97;2.17;;;22.20;61.70;;;;;;2092969;28;20032;-70
2023/07/08 01:12:08;;;;;;;2.22;2.03;;;22.30;61.70;;;;;;2091314;28;20471;-70
2023/07/08 01:13:11;;;;;;;2.53;1.88;;;22.30;61.70;;;;;;2090092;28;20107;-70
2023/07/08 01:14:16;;;;;;;2.05;1.85;;;22.30;61.90;;;;;;2091635;28;20108;-69
2023/07/08 01:15:17;;;;;;;2.85;2.25;;;22.30;62.10;;;;;;2093488;28;20488;-69
2023/07/08 01:16:18;;;;;;;1.70;1.60;;;22.30;62.10;;;;;;2089675;28;20415;-69
2023/07/08 01:17:21;;;;;;;3.22;1.85;;;22.30;62.20;;;;;;2092876;28;20055;-70
2023/07/08 01:18:24;;;;;;;2.67;1.88;;;22.30;62.00;;;;;;2091033;28;20598;-70
2023/07/08 01:19:32;;;;;;;4.53;1.75;;;22.30;61.70;;;;;;2090479;28;20033;-70
2023/07/08 01:20:33;;;;;;;2.65;1.63;;;22.30;61.90;;;;;;2090847;28;20036;-70
2023/07/08 01:21:37;;;;;;;4.53;2.00;;;22.20;61.80;;;;;;2091148;28;20107;-70
2023/07/08 01:22:38;;;;;;;3.40;2.03;;;22.20;61.90;;;;;;2091139;28;20477;-70
2023/07/08 01:23:39;;;;;;;4.93;2.53;;;22.20;62.10;;;;;;2091975;28;20029;-70
2023/07/08 01:24:43;;;;;;;1.85;1.75;;;22.30;62.10;;;;;;2090395;28;20067;-69
2023/07/08 01:25:45;;;;;;;5.43;1.92;;;22.20;62.00;;;;;;2091141;28;20032;-69
2023/07/08 01:26:46;;;;;;;2.38;2.03;;;22.30;62.10;;;;;;2089500;28;20025;-69
2023/07/08 01:27:51;;;;;;;5.75;2.30;;;22.30;62.00;;;;;;2089904;28;20086;-69
2023/07/08 01:28:54;;;;;;;4.15;1.92;;;22.20;62.30;;;;;;2091984;28;20032;-69
2023/07/08 01:29:55;;;;;;;4.82;1.75;;;22.20;62.40;;;;;;2089637;28;20488;-69
2023/07/08 01:30:55;;;;;;;2.03;1.83;;;22.20;62.30;;;;;;2091736;28;20374;-69
2023/07/08 01:31:57;;;;;;;2.70;1.80;;;22.20;62.30;;;;;;2092533;28;20458;-70
2023/07/08 01:33:04;;;;;;;2.03;1.83;;;22.20;62.40;;;;;;2090172;28;20074;-70
2023/07/08 01:34:05;;;;;;;2.00;1.85;;;22.20;62.40;;;;;;2094372;28;20123;-70
2023/07/08 01:35:09;;;;;;;4.05;2.40;;;22.20;62.30;;;;;;2095638;28;20106;-70
2023/07/08 01:36:11;;;;;;;2.00;1.75;;;22.20;62.50;;;;;;2090154;28;20029;-70
2023/07/08 01:37:12;;;;;;;1.65;1.55;;;22.20;62.70;;;;;;2091343;28;20515;-70
2023/07/08 01:38:15;;;;;;;3.47;1.98;;;22.20;63.20;;;;;;2092284;28;20078;-70
2023/07/08 01:39:19;;;;;;;2.40;2.20;;;22.20;62.70;;;;;;2091014;28;20020;-70
2023/07/08 01:40:19;;;;;;;3.15;2.13;;;22.20;63.00;;;;;;2090463;28;20017;-69
2023/07/08 01:41:20;;;;;;;5.72;2.30;;;22.20;62.70;;;;;;2091206;28;20651;-70
2023/07/08 01:42:20;;;;;;;2.00;1.80;;;22.20;62.80;;;;;;2092415;28;20055;-70
2023/07/08 01:43:21;;;;;;;2.00;1.80;;;22.20;62.80;;;;;;2091776;28;20029;-70
2023/07/08 01:44:26;;;;;;;3.25;1.67;;;22.10;62.80;;;;;;2090114;28;20496;-70
2023/07/08 01:45:39;;;;;;;3.63;1.90;;;22.20;62.90;;;;;;2092719;28;20024;-70
2023/07/08 01:46:40;;;;;;;2.03;1.85;;;22.10;62.80;;;;;;2092802;28;20488;-69
2023/07/08 01:47:56;;;;;;;5.72;2.20;;;22.10;62.90;;;;;;2091662;28;20044;-69
2023/07/08 01:48:59;;;;;;;3.80;1.92;;;22.10;62.90;;;;;;2091296;28;20020;-69
2023/07/08 01:50:00;;;;;;;1.92;1.70;;;22.10;62.80;;;;;;2091431;28;20028;-69
2023/07/08 01:51:06;;;;;;;2.05;1.77;;;22.10;62.50;;;;;;2093555;28;20017;-70
2023/07/08 01:52:08;;;;;;;2.10;1.90;;;22.10;62.40;;;;;;2092345;28;20393;-70
2023/07/08 01:53:15;;;;;;;2.08;1.85;;;22.10;62.40;;;;;;2092586;28;20415;-70
2023/07/08 01:54:15;;;;;;;9.40;2.67;;;22.10;62.60;;;;;;2092091;28;20562;-70
2023/07/08 01:55:20;;;;;;;5.80;2.03;;;22.10;62.90;;;;;;2093177;28;20374;-70
2023/07/08 01:56:20;;;;;;;2.90;1.92;;;22.00;62.50;;;;;;2092134;28;20044;-70
2023/07/08 01:57:21;;;;;;;3.63;2.35;;;22.00;63.10;;;;;;2094194;28;20148;-70
2023/07/08 01:58:21;;;;;;;2.03;1.83;;;22.00;63.00;;;;;;2093786;28;20021;-70
2023/07/08 01:59:22;;;;;;;1.80;1.63;;;22.00;63.60;;;;;;2094090;28;20773;-70
2023/07/08 02:00:23;;;;;;;2.55;1.70;;;22.10;63.50;;;;;;2092375;28;20063;-70
2023/07/08 02:01:23;;;;;;;2.60;1.80;;;22.00;63.50;;;;;;2094255;28;20033;-70
2023/07/08 02:02:25;;;;;;;2.63;1.80;;;22.00;63.60;;;;;;2093208;28;20808;-70
2023/07/08 02:03:26;;;;;;;2.90;1.95;;;22.00;63.40;;;;;;2091544;28;20081;-70
2023/07/08 02:04:30;;;;;;;2.10;1.75;;;22.00;63.60;;;;;;2092589;28;20025;-70
2023/07/08 02:05:30;;;;;;;2.20;2.00;;;22.00;63.60;;;;;;2094958;28;20111;-70
2023/07/08 02:06:31;;;;;;;1.90;1.80;;;22.00;63.30;;;;;;2095151;28;20481;-70
2023/07/08 02:07:31;;;;;;;4.90;2.20;;;21.90;63.10;;;;;;2094725;28;20032;-70
2023/07/08 02:08:32;;;;;;;2.60;1.88;;;21.90;64.30;;;;;;2093144;28;20036;-70
2023/07/08 02:09:32;;;;;;;2.83;2.03;;;21.90;63.70;;;;;;2092735;28;20470;-70
2023/07/08 02:10:33;;;;;;;4.95;1.83;;;21.90;63.80;;;;;;2092817;28;20026;-70
2023/07/08 02:11:33;;;;;;;3.47;2.20;;;21.90;63.70;;;;;;2090985;28;20101;-70
2023/07/08 02:12:34;;;;;;;2.83;2.08;;;21.90;63.40;;;;;;2094224;28;20652;-70
2023/07/08 02:13:34;;;;;;;2.42;1.98;;;21.90;63.30;;;;;;2094092;28;20397;-70
2023/07/08 02:14:35;;;;;;;2.25;2.03;;;21.80;63.60;;;;;;2093513;28;20025;-70
2023/07/08 02:15:35;;;;;;;3.10;2.20;;;21.80;64.00;;;;;;2092588;28;20293;-70
2023/07/08 02:16:36;;;;;;;3.05;1.98;;;21.80;64.00;;;;;;2092657;28;20553;-70
2023/07/08 02:17:36;;;;;;;1.88;1.73;;;21.80;63.80;;;;;;2091521;28;20032;-70
2023/07/08 02:18:37;;;;;;;2.47;2.22;;;21.80;64.10;;;;;;2092408;28;20083;-70
2023/07/08 02:19:37;;;;;;;2.72;2.08;;;21.80;64.00;;;;;;2092421;28;20150;-70
2023/07/08 02:20:38;;;;;;;3.08;2.20;;;21.70;64.10;;;;;;2092237;28;20472;-70
2023/07/08 02:21:39;;;;;;;2.53;1.98;;;21.70;64.30;;;;;;2093672;28;20035;-69
2023/07/08 02:22:39;;;;;;;4.00;2.20;;;21.70;64.60;;;;;;2095440;28;20036;-70
2023/07/08 02:23:40;;;;;;;3.00;1.85;;;21.70;64.30;;;;;;2093070;28;20059;-70
2023/07/08 02:24:40;;;;;;;2.95;2.30;;;21.70;63.90;;;;;;2091570;28;20035;-70
2023/07/08 02:25:41;;;;;;;3.65;2.08;;;21.60;64.20;;;;;;2093244;28;20025;-70
2023/07/08 02:26:41;;;;;;;4.75;2.22;;;21.60;64.60;;;;;;2092632;28;20024;-70
2023/07/08 02:27:42;;;;;;;2.40;1.90;;;21.60;64.80;;;;;;2091481;28;20025;-70
2023/07/08 02:28:43;;;;;;;6.68;2.50;;;21.60;65.20;;;;;;2092682;28;20025;-70
2023/07/08 02:29:43;;;;;;;2.30;1.92;;;21.50;65.70;;;;;;2092359;28;20202;-70
2023/07/08 02:30:46;;;;;;;4.10;2.47;;;21.50;65.90;;;;;;2091780;28;20082;-70
2023/07/08 02:31:46;;;;;;;2.92;1.95;;;21.50;65.90;;;;;;2095136;28;20021;-70
2023/07/08 02:32:56;;;;;;;3.80;2.00;;;21.40;66.30;;;;;;2092325;28;20024;-70
2023/07/08 02:33:57;;;;;;;5.38;1.88;;;21.40;66.20;;;;;;2093408;28;20081;-70
2023/07/08 02:34:57;;;;;;;4.55;2.13;;;21.40;66.20;;;;;;2092124;28;20799;-70
2023/07/08 02:35:58;;;;;;;3.55;2.30;;;21.40;66.50;;;;;;2093666;28;20035;-70
2023/07/08 02:36:58;;;;;;;2.92;1.98;;;21.40;66.60;;;;;;2091438;28;20049;-70
2023/07/08 02:37:59;;;;;;;2.15;1.95;;;21.40;66.10;;;;;;2092383;28;20040;-70
2023/07/08 02:39:00;;;;;;;2.15;1.95;;;21.40;66.50;;;;;;2092946;28;20024;-70
2023/07/08 02:40:01;;;;;;;2.03;1.85;;;21.40;67.30;;;;;;2091303;28;20031;-70
2023/07/08 02:41:01;;;;;;;2.67;2.20;;;21.30;67.90;;;;;;2093838;28;20025;-70
2023/07/08 02:42:02;;;;;;;3.08;2.15;;;21.40;68.00;;;;;;2093517;28;20028;-70
2023/07/08 02:43:02;;;;;;;3.13;2.10;;;21.30;68.10;;;;;;2093013;28;20028;-70
2023/07/08 02:44:03;;;;;;;2.05;1.90;;;21.30;68.90;;;;;;2093153;28;20103;-70
2023/07/08 02:45:04;;;;;;;2.67;2.03;;;21.30;68.10;;;;;;2095180;28;20504;-70
2023/07/08 02:46:05;;;;;;;5.78;2.17;;;21.30;68.20;;;;;;2090186;28;20489;-70
2023/07/08 02:47:06;;;;;;;2.03;1.85;;;21.20;68.60;;;;;;2093728;28;20381;-70
2023/07/08 02:48:06;;;;;;;2.63;1.88;;;21.20;68.50;;;;;;2091138;28;20396;-70
2023/07/08 02:49:07;;;;;;;4.25;2.20;;;21.20;68.50;;;;;;2093588;28;20127;-70
2023/07/08 02:50:09;;;;;;;4.35;2.13;;;21.20;68.50;;;;;;2089423;28;20162;-70
2023/07/08 02:51:09;;;;;;;3.47;2.10;;;21.10;69.20;;;;;;2090849;28;20032;-70
2023/07/08 02:52:10;;;;;;;1.85;1.75;;;21.10;68.60;;;;;;2091452;28;20019;-70
2023/07/08 02:53:11;;;;;;;3.08;2.05;;;21.10;69.90;;;;;;2092945;28;20072;-70
2023/07/08 02:54:11;;;;;;;3.28;2.42;;;21.10;69.40;;;;;;2094224;28;20029;-70
2023/07/08 02:55:12;;;;;;;3.42;2.20;;;21.00;69.20;;;;;;2093944;28;20025;-70
2023/07/08 02:56:13;;;;;;;2.97;2.22;;;21.00;69.40;;;;;;2093331;28;20028;-70
2023/07/08 02:57:13;;;;;;;3.50;2.13;;;21.00;69.60;;;;;;2093800;28;20099;-70
2023/07/08 02:58:14;;;;;;;2.13;1.90;;;21.00;69.50;;;;;;2091298;28;20063;-70
2023/07/08 02:59:14;;;;;;;4.70;2.10;;;20.90;70.40;;;;;;2092303;28;20032;-70
2023/07/08 03:00:15;;;;;;;2.13;1.90;;;20.90;69.90;;;;;;2090884;28;20048;-70
2023/07/08 03:01:17;;;;;;;3.38;1.90;;;20.90;70.40;;;;;;2094246;28;20094;-70
2023/07/08 03:02:17;;;;;;;4.50;2.83;;;20.80;70.30;;;;;;2093133;28;20389;-70
2023/07/08 03:03:18;;;;;;;3.03;2.22;;;20.80;70.70;;;;;;2092620;28;20033;-70
2023/07/08 03:04:21;;;;;;;2.58;2.22;;;20.80;70.30;;;;;;2096219;28;20126;-70
2023/07/08 03:05:22;;;;;;;2.17;2.00;;;20.80;70.80;;;;;;2095242;28;20033;-70
2023/07/08 03:06:22;;;;;;;4.75;2.30;;;20.70;71.00;;;;;;2092248;28;20032;-70
2023/07/08 03:07:23;;;;;;;2.85;2.00;;;20.70;71.10;;;;;;2092014;28;20020;-70
2023/07/08 03:08:24;;;;;;;2.22;1.90;;;20.70;71.10;;;;;;2092712;28;20062;-70
2023/07/08 03:09:24;;;;;;;2.20;1.98;;;20.70;71.80;;;;;;2093531;28;20028;-70
2023/07/08 03:10:24;;;;;;;2.25;2.05;;;20.70;72.30;;;;;;2093010;28;20033;-70
2023/07/08 03:11:25;;;;;;;3.63;2.20;;;20.70;73.10;;;;;;2095023;28;20036;-70
2023/07/08 03:12:26;;;;;;;2.40;1.80;;;20.70;73.30;;;;;;2092806;28;20116;-70
2023/07/08 03:13:27;;;;;;;3.55;2.17;;;20.70;74.00;;;;;;2094612;28;20606;-70
2023/07/08 03:14:28;;;;;;;5.88;2.33;;;20.70;73.80;;;;;;2093412;28;20029;-70
2023/07/08 03:15:28;;;;;;;2.45;2.25;;;20.60;74.30;;;;;;2092634;28;20147;-70
2023/07/08 03:16:29;;;;;;;4.95;2.13;;;20.60;74.30;;;;;;2091915;28;20039;-70
2023/07/08 03:17:29;;;;;;;2.60;1.85;;;20.60;73.20;;;;;;2092033;28;20021;-70
2023/07/08 03:18:30;;;;;;;2.75;2.13;;;20.60;73.30;;;;;;2092383;28;20029;-70
2023/07/08 03:19:30;;;;;;;4.28;2.05;;;20.60;73.60;;;;;;2091561;28;20029;-70
2023/07/08 03:20:33;;;;;;;4.35;2.25;;;20.60;73.60;;;;;;2092972;28;20100;-69
2023/07/08 03:21:33;;;;;;;3.05;2.20;;;20.60;74.70;;;;;;2091965;28;20029;-71
2023/07/08 03:22:34;;;;;;;2.50;1.98;;;20.50;74.90;;;;;;2092613;28;20033;-70
2023/07/08 03:23:34;;;;;;;2.60;2.15;;;20.50;74.20;;;;;;2090587;28;20021;-70
2023/07/08 03:24:35;;;;;;;3.33;2.05;;;20.50;74.60;;;;;;2092139;28;20029;-70
2023/07/08 03:25:36;;;;;;;2.45;2.25;;;20.50;74.90;;;;;;2090406;28;20029;-70
2023/07/08 03:26:36;;;;;;;2.55;2.03;;;20.50;75.40;;;;;;2094481;28;20083;-70
2023/07/08 03:27:37;;;;;;;2.92;1.95;;;20.40;75.20;;;;;;2094168;28;20086;-70
2023/07/08 03:28:37;;;;;;;2.90;2.30;;;20.40;74.90;;;;;;2092400;28;20484;-70
2023/07/08 03:29:38;;;;;;;4.00;2.05;;;20.40;74.20;;;;;;2092514;28;20021;-70
2023/07/08 03:30:38;;;;;;;3.78;2.30;;;20.40;75.30;;;;;;2089805;28;20025;-70
2023/07/08 03:31:39;;;;;;;3.70;2.47;;;20.40;76.10;;;;;;2091385;28;20021;-70
2023/07/08 03:32:39;;;;;;;4.43;2.08;;;20.40;76.80;;;;;;2093823;28;20035;-70
2023/07/08 03:33:40;;;;;;;4.32;2.05;;;20.40;77.10;;;;;;2093020;28;20044;-70
2023/07/08 03:34:40;;;;;;;5.10;2.55;;;20.30;76.70;;;;;;2091693;28;20021;-70
2023/07/08 03:35:41;;;;;;;3.50;2.13;;;20.30;77.30;;;;;;2092603;28;20759;-70
2023/07/08 03:36:50;;;;;;;3.08;2.00;;;20.30;78.00;;;;;;2092820;28;20104;-70
2023/07/08 03:37:52;;;;;;;3.17;2.13;;;20.30;78.20;;;;;;2092889;28;20372;-70
2023/07/08 03:38:57;;;;;;;4.13;2.45;;;20.30;78.70;;;;;;2091550;28;20088;-70
2023/07/08 03:39:58;;;;;;;2.80;2.10;;;20.30;77.60;;;;;;2093218;28;20028;-70
2023/07/08 03:40:58;;;;;;;7.55;2.30;;;20.20;78.20;;;;;;2090798;28;20024;-70
2023/07/08 03:41:59;;;;;;;3.08;1.95;;;20.20;78.90;;;;;;2092954;28;20036;-70
2023/07/08 03:43:00;;;;;;;2.45;1.83;;;20.20;79.00;;;;;;2086812;28;20637;-72
2023/07/08 03:44:00;;;;;;;4.30;2.13;;;20.20;78.10;;;;;;2090299;28;20020;-70
2023/07/08 03:45:01;;;;;;;3.40;2.03;;;20.20;78.60;;;;;;2091884;28;20033;-70
2023/07/08 03:46:01;;;;;;;2.90;2.13;;;20.20;78.30;;;;;;2090898;28;20031;-70
2023/07/08 03:47:02;;;;;;;2.30;2.10;;;20.20;79.30;;;;;;2091493;28;20032;-70
2023/07/08 03:48:02;;;;;;;6.07;1.98;;;20.20;79.10;;;;;;2092673;28;20099;-70
2023/07/08 03:49:03;;;;;;;2.75;1.67;;;20.20;78.40;;;;;;2094413;28;20083;-70
2023/07/08 03:50:04;;;;;;;3.95;2.13;;;20.20;78.80;;;;;;2090680;28;20484;-70
2023/07/08 03:51:14;;;;;;;2.60;2.40;;;20.20;79.90;;;;;;2091728;28;20053;-70
2023/07/08 03:52:16;;;;;;;;;;;20.20;79.50;;;;;;2092500;28;20489;-70
2023/07/08 03:53:17;;;;;;;5.78;2.17;;;20.10;81.00;;;;;;2090898;28;19905;-70
2023/07/08 03:54:18;;;;;;;4.38;2.03;;;20.10;80.90;;;;;;2091146;28;20032;-70
2023/07/08 03:55:19;;;;;;;3.03;2.33;;;20.10;82.50;;;;;;2090820;28;20029;-70
2023/07/08 03:56:20;;;;;;;2.53;2.20;;;20.10;82.30;;;;;;2090236;28;20027;-70
2023/07/08 03:57:20;;;;;;;3.35;2.10;;;20.10;83.50;;;;;;2091796;28;20029;-70
2023/07/08 03:58:21;;;;;;;5.07;2.80;;;20.10;84.00;;;;;;2092460;28;20029;-70
2023/07/08 03:59:21;;;;;;;3.03;2.45;;;20.10;84.70;;;;;;2092486;28;20020;-70
2023/07/08 04:00:22;;;;;;;4.03;2.42;;;20.10;84.50;;;;;;2091451;28;20456;-70
2023/07/08 04:01:24;;;;;;;2.40;2.20;;;20.10;84.90;;;;;;2092262;28;20025;-70
2023/07/08 04:02:25;;;;;;;4.43;2.10;;;20.10;84.50;;;;;;2093181;28;20089;-70
2023/07/08 04:03:25;;;;;;;2.28;1.95;;;20.10;84.80;;;;;;2090486;28;20131;-70
2023/07/08 04:04:26;;;;;;;3.35;2.90;;;20.10;85.30;;;;;;2091096;28;20025;-70
2023/07/08 04:05:27;;;;;;;2.30;2.10;;;20.10;86.20;;;;;;2090600;28;20039;-70
2023/07/08 04:06:28;;;;;;;2.30;2.10;;;20.10;86.20;;;;;;2091348;28;20287;-70
2023/07/08 04:07:29;;;;;;;2.35;2.10;;;20.10;87.20;;;;;;2094824;28;20028;-70
2023/07/08 04:08:30;;;;;;;4.07;2.45;;;20.20;87.50;;;;;;2095248;28;20028;-70
2023/07/08 04:09:30;;;;;;;3.00;2.08;;;20.20;88.00;;;;;;2094179;28;20400;-70
2023/07/08 04:10:31;;;;;;;2.30;2.10;;;20.20;89.20;;;;;;2091283;28;20025;-70
2023/07/08 04:11:31;;;;;;;2.67;2.15;;;20.30;88.70;;;;;;2091079;28;20033;-70
2023/07/08 04:12:32;;;;;;;2.97;2.10;;;20.30;89.80;;;;;;2092767;28;20029;-70
2023/07/08 04:13:33;;;;;;;2.60;2.40;;;20.40;89.50;;;;;;2092197;28;20009;-70
2023/07/08 04:14:35;;;;;;;2.22;1.75;;;20.50;90.20;;;;;;2092526;28;20021;-70
2023/07/08 04:15:36;;;;;;;3.78;2.22;;;20.60;90.50;;;;;;2085305;28;20452;-70
2023/07/08 04:16:56;;;;;;;2.45;2.25;;;20.60;90.70;;;;;;2084444;28;20024;-70
2023/07/08 04:17:57;;;;;;;;;;;20.70;91.50;;;;;;2092922;28;20025;-70
2023/07/08 04:18:57;;;;;;;2.38;2.17;;;20.70;92.00;;;;;;2091421;28;19915;-70
2023/07/08 04:20:05;;;;;;;2.55;2.10;;;20.90;90.40;;;;;;2091383;28;20094;-70
2023/07/08 04:21:06;;;;;;;4.03;2.53;;;21.00;89.20;;;;;;2091314;28;20075;-70
2023/07/08 04:22:07;;;;;;;4.03;2.20;;;21.10;85.70;;;;;;2092471;28;20028;-70
2023/07/08 04:23:08;;;;;;;4.93;2.17;;;21.20;85.40;;;;;;2091138;28;20036;-70
2023/07/08 04:24:11;;;;;;;3.78;2.50;;;21.20;83.40;;;;;;2091850;28;20023;-70
2023/07/08 04:25:13;;;;;;;2.70;2.35;;;21.30;83.50;;;;;;2091240;28;20037;-70
2023/07/08 04:26:14;;;;;;;2.35;1.98;;;21.30;83.40;;;;;;2091945;28;20028;-70
2023/07/08 04:27:17;;;;;;;3.58;2.40;;;21.50;84.30;;;;;;2091969;28;20419;-70
2023/07/08 04:28:17;;;;;;;3.63;2.20;;;21.60;84.40;;;;;;2091782;28;20024;-70
2023/07/08 04:29:22;;;;;;;3.40;2.10;;;21.70;83.60;;;;;;2092112;28;20048;-70
2023/07/08 04:30:25;;;;;;;4.38;2.55;;;21.90;82.60;;;;;;2091120;28;20043;-70
2023/07/08 04:31:25;;;;;;;7.10;2.42;;;22.00;81.80;;;;;;2091493;28;20032;-70
2023/07/08 04:32:26;;;;;;;3.17;2.50;;;22.10;80.60;;;;;;2091770;28;20029;-70
2023/07/08 04:33:26;;;;;;;2.97;2.35;;;22.10;80.30;;;;;;2092100;28;20020;-70
2023/07/08 04:34:28;;;;;;;3.50;2.13;;;22.10;79.50;;;;;;2092428;28;20084;-70
2023/07/08 04:35:29;;;;;;;2.05;1.85;;;22.00;78.80;;;;;;2091210;28;20021;-70
2023/07/08 04:36:29;;;;;;;2.90;2.10;;;22.00;80.60;;;;;;2090099;28;20031;-70
2023/07/08 04:37:30;;;;;;;5.13;2.15;;;22.00;81.40;;;;;;2092583;28;20033;-70
2023/07/08 04:38:31;;;;;;;3.40;2.35;;;21.90;80.80;;;;;;2092370;28;20082;-70
2023/07/08 04:39:32;;;;;;;3.88;2.50;;;21.90;81.60;;;;;;2091436;28;20114;-70
2023/07/08 04:40:33;;;;;;;3.20;2.30;;;21.90;82.40;;;;;;2090893;28;20464;-70
2023/07/08 04:41:34;;;;;;;3.00;2.53;;;21.90;82.30;;;;;;2092661;28;20492;-70
2023/07/08 04:42:34;;;;;;;7.13;2.10;;;21.90;83.00;;;;;;2092146;28;20577;-70
2023/07/08 04:43:35;;;;;;;2.60;2.40;;;21.90;83.50;;;;;;2092427;28;20025;-70
2023/07/08 04:44:35;;;;;;;2.92;2.33;;;22.00;84.00;;;;;;2093459;28;20105;-70
2023/07/08 04:45:37;;;;;;;3.58;2.33;;;22.00;83.60;;;;;;2090643;28;20050;-70
2023/07/08 04:46:45;;;;;;;2.72;2.22;;;22.00;83.20;;;;;;2092309;28;20020;-70
2023/07/08 04:47:51;;;;;;;4.35;2.00;;;22.00;83.10;;;;;;2092358;28;20021;-70
2023/07/08 04:48:52;;;;;;;2.85;1.98;;;22.00;83.10;;;;;;2091598;28;20016;-70
2023/07/08 04:49:53;;;;;;;2.97;1.98;;;22.10;82.10;;;;;;2090499;28;20032;-70
2023/07/08 04:50:53;;;;;;;2.45;2.08;;;22.10;81.90;;;;;;2091014;28;20481;-70
2023/07/08 04:51:54;;;;;;;3.03;2.38;;;22.20;82.40;;;;;;2090304;28;20043;-70
2023/07/08 04:52:54;;;;;;;3.30;2.30;;;22.20;82.90;;;;;;2091158;28;20014;-70
2023/07/08 04:53:55;;;;;;;6.28;2.45;;;22.30;83.00;;;;;;2091217;28;20035;-70
2023/07/08 04:54:55;;;;;;;2.60;2.00;;;22.30;81.90;;;;;;2090864;28;20147;-70
2023/07/08 04:55:56;;;;;;;2.85;1.92;;;22.40;82.10;;;;;;2090906;28;20029;-70
2023/07/08 04:56:56;;;;;;;4.53;2.53;;;22.40;82.30;;;;;;2092343;28;20025;-70
2023/07/08 04:57:57;;;;;;;6.60;2.42;;;22.50;82.10;;;;;;2092395;28;20028;-71
2023/07/08 04:58:58;;;;;;;3.30;2.58;;;22.50;82.50;;;;;;2091037;28;20020;-71
2023/07/08 04:59:58;;;;;;;3.50;2.33;;;22.60;83.30;;;;;;2091436;28;20071;-71
2023/07/08 05:00:59;;;;;;;2.53;2.00;;;22.60;81.20;;;;;;2091081;28;20028;-71
2023/07/08 05:01:59;;;;;;;2.70;2.13;;;22.70;81.50;;;;;;2092218;28;20115;-71
2023/07/08 05:03:00;;;;;;;2.67;2.10;;;22.70;81.20;;;;;;2089596;28;20055;-70
2023/07/08 05:04:01;;;;;;;3.05;2.38;;;22.80;81.00;;;;;;2090314;28;20040;-70
2023/07/08 05:05:02;;;;;;;3.45;2.65;;;22.80;81.40;;;;;;2092226;28;20129;-70
2023/07/08 05:06:02;;;;;;;2.88;2.00;;;22.90;81.50;;;;;;2090803;28;20017;-70
2023/07/08 05:07:03;;;;;;;3.92;2.60;;;22.90;80.80;;;;;;2092433;28;20381;-70
2023/07/08 05:08:04;;;;;;;3.20;1.88;;;23.00;80.80;;;;;;2092122;28;20519;-70
2023/07/08 05:09:05;;;;;;;4.95;2.30;;;23.00;79.80;;;;;;2092409;28;20028;-71
2023/07/08 05:10:06;;;;;;;3.45;1.83;;;23.00;78.50;;;;;;2090111;28;20048;-71
2023/07/08 05:11:07;;;;;;;3.38;2.42;;;23.10;79.00;;;;;;2093531;28;20033;-71
2023/07/08 05:12:07;;;;;;;3.65;2.50;;;23.10;78.50;;;;;;2091463;28;20537;-71
2023/07/08 05:13:08;;;;;;;2.78;2.28;;;23.20;78.10;;;;;;2092117;28;20757;-71
2023/07/08 05:14:11;;;;;;;3.08;2.15;;;23.20;77.40;;;;;;2091230;28;20025;-71
2023/07/08 05:15:13;;;;;;;6.35;2.17;;;23.30;77.80;;;;;;2091818;28;20100;-71
2023/07/08 05:16:13;;;;;;;3.13;2.33;;;23.30;77.00;;;;;;2090937;28;20021;-71
2023/07/08 05:17:14;;;;;;;2.38;2.17;;;23.40;77.10;;;;;;2092126;28;20017;-71
2023/07/08 05:18:15;;;;;;;3.80;2.45;;;23.50;76.00;;;;;;2090309;28;20040;-71
2023/07/08 05:19:15;;;;;;;3.40;2.50;;;23.50;76.10;;;;;;2093013;28;20276;-71
2023/07/08 05:20:18;;;;;;;6.82;2.40;;;23.50;76.30;;;;;;2091253;28;20048;-71
2023/07/08 05:21:20;;;;;;;3.88;2.70;;;23.60;76.30;;;;;;2091517;28;20476;-71
2023/07/08 05:22:25;;;;;;;13.55;2.60;;;23.60;75.30;;;;;;2093440;28;20075;-71
2023/07/08 05:23:25;;;;;;;3.17;2.40;;;23.70;75.20;;;;;;2094214;28;20051;-71